Time;durP1;ratioP1;P1;durP2;ratioP2;P2;SDS_P1;SDS_P2;PMS_P1;PMS_P2;Temp;Humidity;BMP_temperature;BMP_pressure;BME280_temperature;BME280_humidity;BME280_pressure;Samples;Min_cycle;Max_cycle;Signal;HPM_P1;HPM_P2
2023/03/20 00:01:42;;;;;;;;;;;;;;;5.14;64.40;99875.25;5004710;28;4712;-86
2023/03/20 00:04:09;;;;;;;;;;;;;;;5.13;64.57;99865.63;5014773;28;4842;-85
2023/03/20 00:06:35;;;;;;;;;;;;;;;5.14;64.43;99861.91;5015696;28;4895;-85
2023/03/20 00:09:02;;;;;;;;;;;;;;;5.22;64.23;99849.22;4996738;28;4874;-86
2023/03/20 00:11:29;;;;;;;;;;;;;;;5.15;64.65;99839.56;5017305;28;4751;-86
2023/03/20 00:13:55;;;;;;;;;;;;;;;5.17;64.43;99842.81;5014162;28;4684;-85
2023/03/20 00:16:22;;;;;;;;;;;;;;;5.15;64.40;99840.38;5015105;28;4822;-85
2023/03/20 00:18:49;;;;;;;;;;;;;;;5.14;64.48;99841.38;5013638;28;4870;-86
2023/03/20 00:21:16;;;;;;;;;;;;;;;5.12;64.53;99832.75;4999709;28;4744;-84
2023/03/20 00:23:43;;;;;;;;;;;;;;;5.13;64.58;99834.41;5000444;28;4806;-84
2023/03/20 00:26:10;;;;;;;;;;;;;;;5.13;64.65;99823.72;4999586;28;4551;-85
2023/03/20 00:28:37;;;;;;;;;;;;;;;5.12;64.65;99826.63;4994345;28;4661;-84
2023/03/20 00:31:04;;;;;;;;;;;;;;;5.11;64.43;99822.28;5000634;28;4904;-86
2023/03/20 00:33:31;;;;;;;;;;;;;;;5.10;64.60;99813.44;5016491;28;4714;-84
2023/03/20 00:35:58;;;;;;;;;;;;;;;5.11;64.68;99819.59;5018048;28;4953;-86
2023/03/20 00:38:24;;;;;;;;;;;;;;;5.11;64.73;99812.41;5021132;28;4916;-86
2023/03/20 00:40:51;;;;;;;;;;;;;;;5.12;64.55;99805.25;5021753;28;4838;-86
2023/03/20 00:43:17;;;;;;;;;;;;;;;5.11;64.62;99812.41;5026126;28;4904;-85
2023/03/20 00:45:44;;;;;;;;;;;;;;;5.12;64.56;99810.59;5025559;28;4766;-87
2023/03/20 00:48:11;;;;;;;;;;;;;;;5.11;64.51;99814.28;5026053;28;4952;-85
2023/03/20 00:50:37;;;;;;;;;;;;;;;5.11;64.51;99815.09;5032503;28;3970;-85
2023/03/20 00:53:04;;;;;;;;;;;;;;;5.09;64.72;99808.31;5010632;28;4608;-85
2023/03/20 00:55:30;;;;;;;;;;;;;;;5.08;64.62;99807.47;5008985;28;4982;-86
2023/03/20 00:57:57;;;;;;;;;;;;;;;5.08;64.61;99810.16;5023903;28;4035;-86
2023/03/20 01:00:24;;;;;;;;;;;;;;;5.09;64.67;99805.63;5023132;28;4906;-86
2023/03/20 01:02:50;;;;;;;;;;;;;;;5.09;64.70;99794.94;5008020;28;4613;-86
2023/03/20 01:05:17;;;;;;;;;;;;;;;5.09;64.56;99787.78;5025594;28;5168;-86
2023/03/20 01:07:44;;;;;;;;;;;;;;;5.09;64.56;99790.47;5022870;28;4866;-86
2023/03/20 01:10:11;;;;;;;;;;;;;;;5.06;64.65;99777.53;5025916;28;5067;-86
2023/03/20 01:12:38;;;;;;;;;;;;;;;5.06;64.59;99777.53;5028262;28;4594;-86
2023/03/20 01:15:04;;;;;;;;;;;;;;;5.08;64.71;99782.66;5011515;28;3963;-85
2023/03/20 01:17:31;;;;;;;;;;;;;;;5.07;64.64;99778.34;5022397;28;4945;-86
2023/03/20 01:19:57;;;;;;;;;;;;;;;5.08;64.47;99774.63;5028182;28;4864;-86
2023/03/20 01:22:24;;;;;;;;;;;;;;;5.09;64.64;99771.78;5009980;28;4677;-85
2023/03/20 01:24:51;;;;;;;;;;;;;;;5.08;64.70;99771.97;5006694;28;4886;-85
2023/03/20 01:27:17;;;;;;;;;;;;;;;5.06;65.04;99761.50;5028730;28;4699;-86
2023/03/20 01:29:44;;;;;;;;;;;;;;;5.06;64.57;99756.16;5011096;28;4739;-86
2023/03/20 01:32:10;;;;;;;;;;;;;;;5.05;64.81;99759.84;5027345;28;4861;-87
2023/03/20 01:34:37;;;;;;;;;;;;;;;5.07;64.69;99754.31;5014029;28;4648;-85
2023/03/20 01:37:04;;;;;;;;;;;;;;;5.07;64.82;99741.78;5008201;28;4535;-86
2023/03/20 01:39:30;;;;;;;;;;;;;;;5.06;64.74;99741.97;5010971;28;5023;-86
2023/03/20 01:41:57;;;;;;;;;;;;;;;5.06;64.74;99744.66;5023745;28;4893;-86
2023/03/20 01:44:23;;;;;;;;;;;;;;;5.05;64.72;99746.50;5012434;28;4797;-85
2023/03/20 01:46:50;;;;;;;;;;;;;;;5.07;64.63;99748.97;5014076;28;4682;-86
2023/03/20 01:49:16;;;;;;;;;;;;;;;5.05;64.90;99741.16;5005487;28;4835;-86
2023/03/20 01:51:43;;;;;;;;;;;;;;;5.04;64.75;99734.19;5019903;28;5096;-86
2023/03/20 01:54:10;;;;;;;;;;;;;;;5.05;64.79;99743.00;5000044;28;4968;-86
2023/03/20 01:56:37;;;;;;;;;;;;;;;5.06;64.71;99744.66;5016430;28;4829;-85
2023/03/20 01:59:04;;;;;;;;;;;;;;;5.04;64.79;99747.53;5026187;28;4974;-84
2023/03/20 02:01:31;;;;;;;;;;;;;;;5.03;64.73;99732.56;5005042;28;4884;-85
2023/03/20 02:03:57;;;;;;;;;;;;;;;5.04;64.72;99741.38;5013304;28;4667;-85
2023/03/20 02:06:24;;;;;;;;;;;;;;;5.04;64.53;99736.03;5014905;28;3836;-86
2023/03/20 02:08:51;;;;;;;;;;;;;;;5.04;64.74;99736.84;5017404;28;4709;-86
2023/03/20 02:11:17;;;;;;;;;;;;;;;5.04;64.70;99738.72;5015905;28;5024;-86
2023/03/20 02:13:45;;;;;;;;;;;;;;;5.04;64.77;99741.38;4998090;28;4586;-86
2023/03/20 02:16:11;;;;;;;;;;;;;;;5.03;64.70;99739.72;5012678;28;4632;-86
2023/03/20 02:18:38;;;;;;;;;;;;;;;5.03;64.96;99732.56;5017243;28;4719;-86
2023/03/20 02:21:05;;;;;;;;;;;;;;;5.02;64.90;99728.22;5001211;28;4916;-85
2023/03/20 02:23:31;;;;;;;;;;;;;;;5.02;64.78;99733.56;5015849;28;4513;-87
2023/03/20 02:25:58;;;;;;;;;;;;;;;5.02;64.80;99730.91;5015358;28;4910;-86
2023/03/20 02:28:26;;;;;;;;;;;;;;;5.01;64.73;99730.06;5002664;28;4882;-86
2023/03/20 02:30:52;;;;;;;;;;;;;;;5.02;64.87;99730.91;5011726;28;4588;-86
2023/03/20 02:33:19;;;;;;;;;;;;;;;5.03;64.67;99724.56;5002511;28;4707;-86
2023/03/20 02:35:46;;;;;;;;;;;;;;;5.01;64.67;99726.59;5012708;28;4913;-85
2023/03/20 02:38:13;;;;;;;;;;;;;;;5.01;64.72;99732.75;5001950;28;3944;-87
2023/03/20 02:40:40;;;;;;;;;;;;;;;5.02;64.79;99738.91;5015619;28;4853;-86
2023/03/20 02:43:06;;;;;;;;;;;;;;;5.00;64.90;99730.28;5015409;28;3736;-86
2023/03/20 02:45:33;;;;;;;;;;;;;;;4.99;64.87;99720.63;5010454;28;3917;-86
2023/03/20 02:47:59;;;;;;;;;;;;;;;4.99;64.90;99715.28;5017617;28;4150;-86
2023/03/20 02:50:26;;;;;;;;;;;;;;;5.00;64.78;99719.63;4998468;28;4608;-86
2023/03/20 02:52:52;;;;;;;;;;;;;;;5.00;65.04;99715.09;4997298;28;4714;-86
2023/03/20 02:55:20;;;;;;;;;;;;;;;4.99;64.79;99712.63;5018271;28;4882;-85
2023/03/20 02:57:47;;;;;;;;;;;;;;;4.99;65.00;99712.63;5013795;28;3926;-86
2023/03/20 03:00:13;;;;;;;;;;;;;;;4.98;64.50;99719.81;5017466;28;4920;-86
2023/03/20 03:02:40;;;;;;;;;;;;;;;4.99;64.67;99701.94;5001395;28;4320;-85
2023/03/20 03:05:07;;;;;;;;;;;;;;;4.97;64.81;99688.81;5013134;28;4914;-85
2023/03/20 03:07:36;;;;;;;;;;;;;;;4.97;64.86;99704.84;5018661;28;3999;-84
2023/03/20 03:10:02;;;;;;;;;;;;;;;4.97;65.04;99694.16;5017214;28;4857;-85
2023/03/20 03:12:29;;;;;;;;;;;;;;;4.98;64.95;99685.13;5001533;28;4560;-86
2023/03/20 03:14:56;;;;;;;;;;;;;;;4.97;64.84;99683.47;5013483;28;4743;-86
2023/03/20 03:17:23;;;;;;;;;;;;;;;4.97;64.99;99686.16;5013762;28;4574;-86
2023/03/20 03:19:50;;;;;;;;;;;;;;;4.98;64.90;99679.78;5012736;28;4581;-86
2023/03/20 03:22:16;;;;;;;;;;;;;;;4.97;64.95;99682.63;5026837;28;4810;-85
2023/03/20 03:24:43;;;;;;;;;;;;;;;4.96;64.89;99673.00;5020012;28;4801;-86
2023/03/20 03:27:10;;;;;;;;;;;;;;;4.95;64.80;99679.38;5003297;28;4988;-86
2023/03/20 03:29:38;;;;;;;;;;;;;;;4.95;64.97;99682.03;5003560;28;4886;-86
2023/03/20 03:32:05;;;;;;;;;;;;;;;4.95;64.96;99696.19;4996495;28;5198;-86
2023/03/20 03:34:32;;;;;;;;;;;;;;;4.96;65.11;99681.00;5002803;28;4791;-86
2023/03/20 03:36:58;;;;;;;;;;;;;;;4.95;64.87;99682.03;5015702;28;4663;-86
2023/03/20 03:39:25;;;;;;;;;;;;;;;4.94;65.01;99683.03;4998648;28;4844;-85
2023/03/20 03:41:51;;;;;;;;;;;;;;;4.94;64.93;99675.03;5022178;28;4965;-86
2023/03/20 03:44:18;;;;;;;;;;;;;;;4.95;64.92;99677.53;5002818;28;4847;-86
2023/03/20 03:46:44;;;;;;;;;;;;;;;4.94;64.81;99681.22;5020685;28;4980;-86
2023/03/20 03:49:11;;;;;;;;;;;;;;;4.94;65.04;99675.88;5022522;28;3787;-86
2023/03/20 03:51:37;;;;;;;;;;;;;;;4.92;64.88;99669.91;5014366;28;4805;-86
2023/03/20 03:54:04;;;;;;;;;;;;;;;4.95;64.60;99666.84;5001448;28;4845;-86
2023/03/20 03:56:32;;;;;;;;;;;;;;;4.93;64.83;99663.56;5015853;28;4854;-86
2023/03/20 03:58:58;;;;;;;;;;;;;;;4.93;64.95;99660.88;5022046;28;4805;-85
2023/03/20 04:01:26;;;;;;;;;;;;;;;4.92;65.00;99659.25;4994825;28;4706;-88
2023/03/20 04:03:52;;;;;;;;;;;;;;;4.92;65.05;99658.44;5001050;28;4985;-86
2023/03/20 04:06:19;;;;;;;;;;;;;;;4.92;64.98;99661.09;5019057;28;5036;-84
2023/03/20 04:08:45;;;;;;;;;;;;;;;4.91;64.87;99668.28;5004412;28;4829;-87
2023/03/20 04:11:12;;;;;;;;;;;;;;;4.92;64.71;99669.09;5003535;28;4891;-86
2023/03/20 04:13:59;;;;;;;;;;;;;;;4.91;64.93;99668.28;5018827;28;4842;-86
2023/03/20 04:16:45;;;;;;;;;;;;;;;4.91;65.06;99660.28;5021379;28;4732;-86
2023/03/20 04:19:32;;;;;;;;;;;;;;;4.92;64.91;99647.75;5019511;28;4954;-87
2023/03/20 04:22:09;;;;;;;;;;;;;;;4.91;64.93;99641.59;5003134;28;4903;-86
2023/03/20 04:24:57;;;;;;;;;;;;;;;4.90;65.02;99645.28;5016643;28;4676;-87
2023/03/20 04:27:43;;;;;;;;;;;;;;;4.90;64.86;99655.94;5019623;28;4870;-86
2023/03/20 04:30:10;;;;;;;;;;;;;;;4.90;64.87;99647.94;5004551;28;4789;-87
2023/03/20 04:32:36;;;;;;;;;;;;;;;4.92;64.89;99647.75;5020951;28;4835;-86
2023/03/20 04:35:03;;;;;;;;;;;;;;;4.92;64.77;99645.91;5020246;28;5148;-86
2023/03/20 04:37:30;;;;;;;;;;;;;;;4.90;64.90;99647.94;5008629;28;5022;-87
2023/03/20 04:39:56;;;;;;;;;;;;;;;4.90;64.99;99645.28;5020064;28;4764;-87
2023/03/20 04:42:23;;;;;;;;;;;;;;;4.89;64.87;99632.97;5018297;28;4870;-87
2023/03/20 04:44:49;;;;;;;;;;;;;;;4.90;64.57;99636.47;5013874;28;4523;-87
2023/03/20 04:47:16;;;;;;;;;;;;;;;4.88;64.87;99634.00;5003658;28;4949;-87
2023/03/20 04:49:42;;;;;;;;;;;;;;;4.89;64.90;99643.66;5006480;28;4887;-87
2023/03/20 04:52:09;;;;;;;;;;;;;;;4.88;64.90;99639.34;5006493;28;4692;-85
2023/03/20 04:54:36;;;;;;;;;;;;;;;4.89;64.86;99648.16;5019277;28;4756;-87
2023/03/20 04:57:02;;;;;;;;;;;;;;;4.88;64.74;99641.16;5021195;28;4909;-87
2023/03/20 04:59:29;;;;;;;;;;;;;;;4.88;65.08;99642.03;5019415;28;5156;-87
2023/03/20 05:01:55;;;;;;;;;;;;;;;4.88;65.06;99652.69;5001430;28;4889;-86
2023/03/20 05:04:22;;;;;;;;;;;;;;;4.87;65.07;99651.03;5016991;28;4989;-86
2023/03/20 05:06:48;;;;;;;;;;;;;;;4.88;64.90;99659.84;5010993;28;3874;-87
2023/03/20 05:09:15;;;;;;;;;;;;;;;4.88;64.94;99667.84;5008749;28;4744;-86
2023/03/20 05:11:42;;;;;;;;;;;;;;;4.87;64.85;99675.03;5014382;28;4839;-87
2023/03/20 05:14:08;;;;;;;;;;;;;;;4.87;64.93;99671.56;5010130;28;4455;-87
2023/03/20 05:16:35;;;;;;;;;;;;;;;4.86;65.06;99667.25;5007731;28;4747;-87
2023/03/20 05:19:01;;;;;;;;;;;;;;;4.86;64.78;99669.94;4992320;28;4829;-87
2023/03/20 05:21:28;;;;;;;;;;;;;;;4.85;64.98;99666.41;4991426;28;4878;-86
2023/03/20 05:23:54;;;;;;;;;;;;;;;4.86;64.71;99670.75;5010243;28;3879;-87
2023/03/20 05:26:21;;;;;;;;;;;;;;;4.85;64.92;99668.25;5011137;28;3823;-86
2023/03/20 05:28:48;;;;;;;;;;;;;;;4.85;64.85;99678.94;5000101;28;4933;-87
2023/03/20 05:31:15;;;;;;;;;;;;;;;4.84;65.36;99677.31;5012622;28;4820;-87
2023/03/20 05:33:41;;;;;;;;;;;;;;;4.85;64.96;99681.59;4994027;28;4499;-87
2023/03/20 05:36:08;;;;;;;;;;;;;;;4.85;65.06;99673.59;4994290;28;4571;-87
2023/03/20 05:38:34;;;;;;;;;;;;;;;4.84;65.07;99677.31;5013501;28;3653;-87
2023/03/20 05:41:01;;;;;;;;;;;;;;;4.84;65.02;99664.78;5001676;28;4779;-87
2023/03/20 05:43:28;;;;;;;;;;;;;;;4.83;64.94;99665.81;4990643;28;4660;-87
2023/03/20 05:45:55;;;;;;;;;;;;;;;4.85;64.90;99666.41;5015941;28;4644;-87
2023/03/20 05:48:30;;;;;;;;;;;;;;;4.83;64.78;99665.81;5008677;28;4549;-88
2023/03/20 05:50:57;;;;;;;;;;;;;;;4.82;65.02;99664.16;4994327;28;4771;-87
2023/03/20 05:53:24;;;;;;;;;;;;;;;4.81;64.92;99664.38;5007795;28;3718;-87
2023/03/20 05:55:51;;;;;;;;;;;;;;;4.81;64.80;99661.69;4995206;28;3953;-87
2023/03/20 06:01:33;;;;;;;;;;;;;;;4.81;64.92;99662.53;4993312;28;4953;-87
2023/03/20 06:04:00;;;;;;;;;;;;;;;4.80;65.00;99668.88;4998486;28;4743;-87
2023/03/20 06:06:27;;;;;;;;;;;;;;;4.80;64.98;99671.56;5017642;28;5138;-87
2023/03/20 06:08:54;;;;;;;;;;;;;;;4.81;64.87;99675.84;5025031;28;5064;-86
2023/03/20 06:11:21;;;;;;;;;;;;;;;4.82;64.96;99671.34;5006026;28;4874;-86
2023/03/20 06:13:48;;;;;;;;;;;;;;;4.81;64.92;99669.72;5023562;28;3883;-87
2023/03/20 06:16:16;;;;;;;;;;;;;;;4.79;64.97;99667.22;5023377;28;5085;-86
2023/03/20 06:18:45;;;;;;;;;;;;;;;4.79;64.94;99672.56;5018652;28;4608;-87
2023/03/20 06:21:11;;;;;;;;;;;;;;;4.79;64.91;99667.22;5021076;28;4645;-86
2023/03/20 06:23:38;;;;;;;;;;;;;;;4.80;65.12;99681.41;5022903;28;4956;-85
2023/03/20 06:26:05;;;;;;;;;;;;;;;4.79;64.88;99672.56;5020554;28;4822;-87
2023/03/20 06:28:32;;;;;;;;;;;;;;;4.82;64.89;99676.69;5019391;28;4933;-88
2023/03/20 06:30:58;;;;;;;;;;;;;;;4.78;64.93;99673.59;5028196;23;4914;-88
2023/03/20 06:33:36;;;;;;;;;;;;;;;4.78;65.00;99677.09;5005371;28;4822;-87
2023/03/20 06:36:06;;;;;;;;;;;;;;;4.77;64.90;99678.13;5003998;28;5018;-87
2023/03/20 06:38:33;;;;;;;;;;;;;;;4.78;65.02;99674.41;4986787;28;3913;-86
2023/03/20 06:41:02;;;;;;;;;;;;;;;4.77;64.95;99677.31;5014977;28;4323;-85
2023/03/20 06:43:29;;;;;;;;;;;;;;;4.77;64.94;99682.63;4986803;28;4388;-87
2023/03/20 06:45:56;;;;;;;;;;;;;;;4.77;64.90;99679.97;4999788;28;4866;-87
2023/03/20 06:48:22;;;;;;;;;;;;;;;4.78;64.94;99682.41;4985243;28;4897;-87
2023/03/20 06:50:49;;;;;;;;;;;;;;;4.77;64.85;99679.97;4985220;28;5019;-86
2023/03/20 06:53:16;;;;;;;;;;;;;;;4.76;65.04;99680.97;5001833;28;3885;-87
2023/03/20 06:55:42;;;;;;;;;;;;;;;4.77;65.03;99687.97;4978730;28;4803;-86
2023/03/20 06:58:09;;;;;;;;;;;;;;;4.75;64.85;99685.50;4974983;28;4847;-87
2023/03/20 07:00:36;;;;;;;;;;;;;;;4.76;64.98;99696.97;4999275;28;4676;-86
2023/03/20 07:03:03;;;;;;;;;;;;;;;4.76;65.13;99691.66;4986567;28;4889;-87
2023/03/20 07:05:30;;;;;;;;;;;;;;;4.75;64.97;99701.50;5006058;28;4832;-87
2023/03/20 07:07:56;;;;;;;;;;;;;;;4.75;64.88;99701.50;5004879;28;1758;-86
2023/03/20 07:10:23;;;;;;;;;;;;;;;4.75;65.06;99698.84;5007793;28;4075;-86
2023/03/20 07:12:50;;;;;;;;;;;;;;;4.74;65.27;99699.88;4986129;28;4945;-86
2023/03/20 07:15:18;;;;;;;;;;;;;;;4.74;64.98;99705.19;5004857;28;4041;-86
2023/03/20 07:17:45;;;;;;;;;;;;;;;4.74;64.71;99710.53;4999867;28;5212;-86
2023/03/20 07:20:13;;;;;;;;;;;;;;;4.73;65.00;99714.22;5005765;28;4664;-86
2023/03/20 07:22:40;;;;;;;;;;;;;;;4.73;65.00;99719.53;5002831;28;4876;-87
2023/03/20 07:25:07;;;;;;;;;;;;;;;4.73;64.96;99722.22;4985661;28;4596;-86
2023/03/20 07:27:34;;;;;;;;;;;;;;;4.73;64.91;99726.72;4981788;28;4831;-86
2023/03/20 07:30:01;;;;;;;;;;;;;;;4.73;64.82;99724.06;5003947;28;4851;-86
2023/03/20 07:32:28;;;;;;;;;;;;;;;4.73;65.07;99732.06;5004547;28;4927;-87
2023/03/20 07:34:54;;;;;;;;;;;;;;;4.73;64.91;99732.06;4999632;28;4886;-88
2023/03/20 07:37:21;;;;;;;;;;;;;;;4.73;65.00;99738.22;4993775;28;4758;-86
2023/03/20 07:39:47;;;;;;;;;;;;;;;4.71;65.00;99742.97;4986448;28;4586;-86
2023/03/20 07:42:14;;;;;;;;;;;;;;;4.72;64.89;99741.09;4985877;28;4559;-86
2023/03/20 07:44:40;;;;;;;;;;;;;;;4.72;65.23;99749.09;4974591;28;4795;-86
2023/03/20 07:47:07;;;;;;;;;;;;;;;4.71;65.15;99744.81;4986531;28;4840;-86
2023/03/20 07:49:34;;;;;;;;;;;;;;;4.71;65.00;99748.28;4992671;28;3948;-86
2023/03/20 07:52:00;;;;;;;;;;;;;;;4.71;65.03;99755.47;4988936;28;4424;-87
2023/03/20 07:54:27;;;;;;;;;;;;;;;4.71;64.98;99764.28;4988746;28;4709;-85
2023/03/20 07:56:53;;;;;;;;;;;;;;;4.72;65.07;99767.78;4988688;28;4915;-86
2023/03/20 07:59:20;;;;;;;;;;;;;;;4.72;65.00;99765.94;4992685;28;4514;-87
2023/03/20 08:01:47;;;;;;;;;;;;;;;4.70;65.06;99767.97;4995932;28;4350;-87
2023/03/20 08:04:18;;;;;;;;;;;;;;;4.70;65.20;99786.63;4998301;28;4695;-87
2023/03/20 08:06:44;;;;;;;;;;;;;;;4.72;64.87;99784.59;5004008;28;4934;-87
2023/03/20 08:09:11;;;;;;;;;;;;;;;4.71;64.96;99795.50;5000215;28;4808;-85
2023/03/20 08:11:37;;;;;;;;;;;;;;;4.71;64.90;99798.16;4996722;28;4978;-87
2023/03/20 08:14:04;;;;;;;;;;;;;;;4.70;64.83;99797.31;4996618;28;4851;-87
2023/03/20 08:16:31;;;;;;;;;;;;;;;4.69;64.98;99801.00;4995189;28;4912;-87
2023/03/20 08:19:00;;;;;;;;;;;;;;;4.70;65.05;99802.66;4998989;28;4874;-85
2023/03/20 08:21:27;;;;;;;;;;;;;;;4.69;65.02;99797.53;5000960;28;4889;-86
2023/03/20 08:23:54;;;;;;;;;;;;;;;4.68;64.81;99796.72;4999720;28;4179;-87
2023/03/20 08:26:21;;;;;;;;;;;;;;;4.68;64.86;99796.72;5000406;28;4753;-87
2023/03/20 08:28:47;;;;;;;;;;;;;;;4.69;64.92;99787.66;4988463;28;4995;-87
2023/03/20 08:31:14;;;;;;;;;;;;;;;4.69;64.89;99793.00;4995722;28;5016;-86
2023/03/20 08:33:40;;;;;;;;;;;;;;;4.69;64.97;99789.53;4997238;28;3883;-85
2023/03/20 08:36:07;;;;;;;;;;;;;;;4.69;64.92;99790.34;4996537;28;4652;-86
2023/03/20 08:38:34;;;;;;;;;;;;;;;4.68;64.97;99787.88;4996256;28;3748;-87
2023/03/20 08:41:01;;;;;;;;;;;;;;;4.69;64.95;99792.19;4997564;28;4755;-85
2023/03/20 08:43:27;;;;;;;;;;;;;;;4.68;65.04;99788.72;4993733;28;4571;-85
2023/03/20 08:45:54;;;;;;;;;;;;;;;4.68;65.13;99791.38;4984470;28;4022;-85
2023/03/20 08:48:21;;;;;;;;;;;;;;;4.70;65.10;99791.16;4996242;28;4860;-87
2023/03/20 08:50:47;;;;;;;;;;;;;;;4.69;64.74;99786.84;4988628;28;3738;-88
2023/03/20 08:53:14;;;;;;;;;;;;;;;4.69;64.78;99794.84;4981539;28;4757;-88
2023/03/20 08:55:40;;;;;;;;;;;;;;;4.68;64.83;99794.03;4993075;28;3790;-87
2023/03/20 08:58:07;;;;;;;;;;;;;;;4.68;64.99;99810.03;4979832;28;4943;-87
2023/03/20 09:00:33;;;;;;;;;;;;;;;4.68;64.98;99812.72;4996905;28;4571;-87
2023/03/20 09:03:01;;;;;;;;;;;;;;;4.68;64.95;99802.03;4983423;28;4716;-86
2023/03/20 09:05:27;;;;;;;;;;;;;;;4.69;64.81;99810.88;4997931;28;4750;-86
2023/03/20 09:07:54;;;;;;;;;;;;;;;4.68;64.79;99820.72;4999767;28;4547;-87
2023/03/20 09:10:21;;;;;;;;;;;;;;;4.69;65.07;99816.19;5001739;28;4637;-86
2023/03/20 09:12:48;;;;;;;;;;;;;;;4.68;65.03;99814.56;5004855;28;4616;-87
2023/03/20 09:15:14;;;;;;;;;;;;;;;4.69;64.99;99825.03;5005001;28;4850;-88
2023/03/20 09:17:41;;;;;;;;;;;;;;;4.69;65.03;99816.19;5005860;28;4609;-87
2023/03/20 09:20:07;;;;;;;;;;;;;;;4.68;64.92;99825.22;5000887;28;4894;-85
2023/03/20 09:22:34;;;;;;;;;;;;;;;4.69;64.88;99822.34;4999938;28;4530;-85
2023/03/20 09:25:01;;;;;;;;;;;;;;;4.70;64.94;99825.84;4993170;28;4951;-85
2023/03/20 09:27:27;;;;;;;;;;;;;;;4.68;64.73;99834.06;5001813;28;4482;-87
2023/03/20 09:29:54;;;;;;;;;;;;;;;4.70;64.84;99837.31;5002731;28;3946;-86
2023/03/20 09:32:20;;;;;;;;;;;;;;;4.70;64.79;99839.16;5000596;28;4575;-87
2023/03/20 09:34:47;;;;;;;;;;;;;;;4.70;64.78;99848.00;5002774;28;4777;-87
2023/03/20 09:37:13;;;;;;;;;;;;;;;4.69;64.78;99858.88;4994033;28;5383;-87
2023/03/20 09:39:40;;;;;;;;;;;;;;;4.69;64.87;99857.03;4999550;28;4794;-86
2023/03/20 09:42:07;;;;;;;;;;;;;;;4.70;64.80;99857.84;4993414;28;4823;-88
2023/03/20 09:44:33;;;;;;;;;;;;;;;4.70;64.94;99863.19;4998089;28;4868;-87
2023/03/20 09:47:00;;;;;;;;;;;;;;;4.70;64.85;99868.53;4981229;28;4690;-87
2023/03/20 09:49:26;;;;;;;;;;;;;;;4.70;64.91;99865.84;4994769;28;4903;-86
2023/03/20 09:51:53;;;;;;;;;;;;;;;4.70;64.72;99872.00;4975120;28;4696;-85
2023/03/20 09:54:20;;;;;;;;;;;;;;;4.71;64.78;99875.53;4991335;28;4562;-85
2023/03/20 09:56:47;;;;;;;;;;;;;;;4.71;64.83;99870.19;4978788;28;3858;-86
2023/03/20 09:59:14;;;;;;;;;;;;;;;4.71;64.73;99884.34;4992758;28;3255;-86
2023/03/20 10:01:41;;;;;;;;;;;;;;;4.71;64.91;99887.00;4978285;28;4770;-86
2023/03/20 10:04:07;;;;;;;;;;;;;;;4.71;64.90;99889.69;4995481;28;4673;-86
2023/03/20 10:06:34;;;;;;;;;;;;;;;4.70;64.83;99880.00;4999327;28;4847;-86
2023/03/20 10:09:00;;;;;;;;;;;;;;;4.72;64.95;99875.31;4993482;28;4232;-86
2023/03/20 10:11:27;;;;;;;;;;;;;;;4.73;65.00;99884.13;5002756;28;5051;-86
2023/03/20 10:13:54;;;;;;;;;;;;;;;4.72;64.74;99885.16;5002028;28;4748;-85
2023/03/20 10:16:21;;;;;;;;;;;;;;;4.72;64.66;99893.97;4999689;28;4968;-87
2023/03/20 10:18:47;;;;;;;;;;;;;;;4.74;64.81;99893.78;5002457;28;4768;-86
2023/03/20 10:21:17;;;;;;;;;;;;;;;4.75;64.73;99895.44;5003279;28;3954;-86
2023/03/20 10:23:43;;;;;;;;;;;;;;;4.74;64.96;99899.13;5001931;28;4860;-84
2023/03/20 10:26:10;;;;;;;;;;;;;;;4.76;64.94;99908.59;4989777;28;4680;-85
2023/03/20 10:28:36;;;;;;;;;;;;;;;4.75;65.08;99904.25;4986051;28;4867;-86
2023/03/20 10:31:03;;;;;;;;;;;;;;;4.74;64.90;99902.63;5003474;28;4920;-85
2023/03/20 10:33:30;;;;;;;;;;;;;;;4.74;64.88;99907.94;5000231;28;4871;-86
2023/03/20 10:35:56;;;;;;;;;;;;;;;4.74;64.96;99910.63;4984017;28;4946;-85
2023/03/20 10:38:24;;;;;;;;;;;;;;;4.76;64.95;99921.09;4996894;28;4718;-87
2023/03/20 10:40:51;;;;;;;;;;;;;;;4.76;64.80;99913.94;5003897;28;4943;-85
2023/03/20 10:43:17;;;;;;;;;;;;;;;4.76;64.91;99921.94;5001288;28;4700;-85
2023/03/20 10:45:44;;;;;;;;;;;;;;;4.76;65.01;99921.94;5002241;28;5102;-84
2023/03/20 10:48:11;;;;;;;;;;;;;;;4.76;64.92;99919.25;4997681;28;4732;-83
2023/03/20 10:50:40;;;;;;;;;;;;;;;4.77;64.87;99925.41;4981876;28;4743;-85
2023/03/20 10:53:07;;;;;;;;;;;;;;;4.79;64.95;99926.03;4984765;28;4627;-84
2023/03/20 10:55:33;;;;;;;;;;;;;;;4.77;64.99;99925.41;4998578;28;4792;-85
2023/03/20 10:58:00;;;;;;;;;;;;;;;4.77;64.64;99926.22;5001324;28;3785;-84
2023/03/20 11:00:29;;;;;;;;;;;;;;;4.77;64.78;99923.56;4995924;28;4817;-84
2023/03/20 11:02:56;;;;;;;;;;;;;;;4.79;64.88;99926.03;4998534;28;4729;-84
2023/03/20 11:05:26;;;;;;;;;;;;;;;4.78;64.87;99925.19;4987290;28;4610;-83
2023/03/20 11:07:53;;;;;;;;;;;;;;;4.80;64.69;99937.53;4991176;28;4727;-84
2023/03/20 11:10:19;;;;;;;;;;;;;;;4.80;64.95;99941.03;4998570;28;5017;-84
2023/03/20 11:12:46;;;;;;;;;;;;;;;4.81;64.83;99942.66;4985814;28;4952;-85
2023/03/20 11:15:13;;;;;;;;;;;;;;;4.83;65.02;99951.31;4995925;28;4415;-82
2023/03/20 11:17:40;;;;;;;;;;;;;;;4.83;64.80;99942.47;4982440;28;4737;-84
2023/03/20 11:20:07;;;;;;;;;;;;;;;4.84;64.81;99950.28;4998483;28;4781;-84
2023/03/20 11:22:33;;;;;;;;;;;;;;;4.84;64.90;99949.47;4990349;28;3774;-83
2023/03/20 11:25:01;;;;;;;;;;;;;;;4.86;64.86;99940.25;4981741;28;4821;-84
2023/03/20 11:27:28;;;;;;;;;;;;;;;4.85;64.80;99941.25;5000175;28;4940;-84
2023/03/20 11:29:55;;;;;;;;;;;;;;;4.85;64.81;99943.91;5001806;28;4768;-83
2023/03/20 11:32:22;;;;;;;;;;;;;;;4.83;65.15;99939.81;4998721;28;4401;-83
2023/03/20 11:34:48;;;;;;;;;;;;;;;4.87;64.75;99943.72;4984059;28;4568;-83
2023/03/20 11:37:15;;;;;;;;;;;;;;;4.86;64.51;99940.25;4982111;28;4704;-84
2023/03/20 11:39:45;;;;;;;;;;;;;;;4.84;64.47;99952.13;4999404;28;4385;-84
2023/03/20 11:42:12;;;;;;;;;;;;;;;4.83;64.83;99950.50;4995693;28;4794;-84
2023/03/20 11:44:40;;;;;;;;;;;;;;;4.83;64.84;99948.63;4983452;28;4668;-85
2023/03/20 11:47:07;;;;;;;;;;;;;;;4.84;65.19;99949.47;4979009;28;4696;-83
2023/03/20 11:49:33;;;;;;;;;;;;;;;4.86;64.77;99950.91;4987622;28;4574;-83
2023/03/20 11:52:00;;;;;;;;;;;;;;;4.91;64.67;99950.31;4986289;28;4791;-86
2023/03/20 11:54:27;;;;;;;;;;;;;;;5.00;64.45;99955.31;4997848;28;4622;-84
2023/03/20 11:56:53;;;;;;;;;;;;;;;5.02;64.34;99963.09;4998756;28;4625;-84
2023/03/20 11:59:23;;;;;;;;;;;;;;;4.95;64.50;99959.59;4995163;28;4715;-84
2023/03/20 12:01:50;;;;;;;;;;;;;;;5.11;64.02;99969.09;4995319;28;4396;-84
2023/03/20 12:04:16;;;;;;;;;;;;;;;5.07;64.17;99962.50;4997972;28;4865;-85
2023/03/20 12:06:43;;;;;;;;;;;;;;;5.03;64.16;99969.25;5002376;28;4645;-84
2023/03/20 12:09:10;;;;;;;;;;;;;;;5.17;63.80;99960.28;4980022;28;4770;-84
2023/03/20 12:11:36;;;;;;;;;;;;;;;5.17;63.80;99978.97;5006962;28;4064;-85
2023/03/20 12:14:06;;;;;;;;;;;;;;;5.14;64.01;99974.84;4996810;28;4740;-84
2023/03/20 12:16:34;;;;;;;;;;;;;;;5.14;63.75;99980.19;4999529;28;4944;-85
2023/03/20 12:19:07;;;;;;;;;;;;;;;5.15;64.05;99981.03;5000883;28;4563;-85
2023/03/20 12:21:34;;;;;;;;;;;;;;;5.04;64.26;99976.25;4992014;28;4547;-86
2023/03/20 12:24:03;;;;;;;;;;;;;;;5.09;64.35;99982.66;4999919;28;4297;-85
2023/03/20 12:26:30;;;;;;;;;;;;;;;5.10;64.46;99981.63;4998992;28;4712;-85
2023/03/20 12:28:56;;;;;;;;;;;;;;;5.19;63.94;99984.94;4998249;28;4822;-86
2023/03/20 12:31:23;;;;;;;;;;;;;;;5.09;64.16;99982.66;5000640;28;3791;-83
2023/03/20 12:33:50;;;;;;;;;;;;;;;5.07;64.13;99982.03;4978598;28;4569;-84
2023/03/20 12:36:16;;;;;;;;;;;;;;;5.03;63.93;99983.44;4997896;28;4149;-86
2023/03/20 12:38:43;;;;;;;;;;;;;;;4.97;64.63;99978.88;4980750;28;4425;-85
2023/03/20 12:41:10;;;;;;;;;;;;;;;5.08;64.40;99982.84;5005686;28;4721;-86
2023/03/20 12:43:37;;;;;;;;;;;;;;;5.04;64.71;99986.94;4999782;28;4756;-86
2023/03/20 12:46:03;;;;;;;;;;;;;;;5.04;64.57;99985.09;4995107;28;4986;-85
2023/03/20 12:48:30;;;;;;;;;;;;;;;5.03;64.59;99987.94;4987314;28;4397;-85
2023/03/20 12:50:57;;;;;;;;;;;;;;;5.03;64.65;99991.44;4996839;28;4676;-86
2023/03/20 12:53:27;;;;;;;;;;;;;;;5.05;64.67;100000.06;4998536;28;4698;-84
2023/03/20 12:55:54;;;;;;;;;;;;;;;5.09;64.55;100004.00;4997562;28;4820;-86
2023/03/20 12:58:21;;;;;;;;;;;;;;;5.11;64.36;100012.63;4999636;28;4593;-85
2023/03/20 13:00:48;;;;;;;;;;;;;;;5.13;64.65;100015.09;4999122;28;4388;-84
2023/03/20 13:03:15;;;;;;;;;;;;;;;5.14;64.40;100014.91;5000185;28;4349;-84
2023/03/20 13:05:41;;;;;;;;;;;;;;;5.08;64.75;100010.34;4978981;28;4609;-86
2023/03/20 13:08:11;;;;;;;;;;;;;;;5.10;64.30;100013.66;4977255;28;4519;-85
2023/03/20 13:10:40;;;;;;;;;;;;;;;5.03;64.95;100010.13;4993287;28;4745;-84